sensor_id;sensor_type;location;lat;lon;timestamp;temperature;humidity
69382;DHT22;56560;50.692;12.844;2024-02-23T00:02:17;11.40;67.60
69382;DHT22;56560;50.692;12.844;2024-02-23T00:04:43;11.40;68.00
69382;DHT22;56560;50.692;12.844;2024-02-23T00:07:10;11.40;67.80
69382;DHT22;56560;50.692;12.844;2024-02-23T00:09:36;11.30;68.20
69382;DHT22;56560;50.692;12.844;2024-02-23T00:12:02;11.20;68.30
69382;DHT22;56560;50.692;12.844;2024-02-23T00:14:29;11.00;68.90
69382;DHT22;56560;50.692;12.844;2024-02-23T00:16:56;10.90;69.30
69382;DHT22;56560;50.692;12.844;2024-02-23T00:19:23;10.80;69.10
69382;DHT22;56560;50.692;12.844;2024-02-23T00:21:49;10.90;68.90
69382;DHT22;56560;50.692;12.844;2024-02-23T00:24:16;10.90;68.90
69382;DHT22;56560;50.692;12.844;2024-02-23T00:26:43;11.00;68.20
69382;DHT22;56560;50.692;12.844;2024-02-23T00:29:09;10.90;67.90
69382;DHT22;56560;50.692;12.844;2024-02-23T00:31:37;10.90;68.10
69382;DHT22;56560;50.692;12.844;2024-02-23T00:34:03;10.90;68.40
69382;DHT22;56560;50.692;12.844;2024-02-23T00:36:28;10.80;68.70
69382;DHT22;56560;50.692;12.844;2024-02-23T00:38:54;10.80;68.50
69382;DHT22;56560;50.692;12.844;2024-02-23T00:41:20;10.80;68.70
69382;DHT22;56560;50.692;12.844;2024-02-23T00:43:45;10.80;68.70
69382;DHT22;56560;50.692;12.844;2024-02-23T00:46:12;10.70;68.80
69382;DHT22;56560;50.692;12.844;2024-02-23T00:48:39;10.70;68.60
69382;DHT22;56560;50.692;12.844;2024-02-23T00:51:05;10.70;68.50
69382;DHT22;56560;50.692;12.844;2024-02-23T00:53:31;10.70;68.30
69382;DHT22;56560;50.692;12.844;2024-02-23T00:55:57;10.70;68.50
69382;DHT22;56560;50.692;12.844;2024-02-23T00:58:23;10.70;68.50
69382;DHT22;56560;50.692;12.844;2024-02-23T01:00:48;10.70;68.40
69382;DHT22;56560;50.692;12.844;2024-02-23T01:03:14;10.70;68.50
69382;DHT22;56560;50.692;12.844;2024-02-23T01:05:40;10.60;68.40
69382;DHT22;56560;50.692;12.844;2024-02-23T01:08:08;10.60;68.10
69382;DHT22;56560;50.692;12.844;2024-02-23T01:10:33;10.60;68.10
69382;DHT22;56560;50.692;12.844;2024-02-23T01:12:59;10.60;67.90
69382;DHT22;56560;50.692;12.844;2024-02-23T01:15:24;10.60;67.20
69382;DHT22;56560;50.692;12.844;2024-02-23T01:17:50;10.50;67.40
69382;DHT22;56560;50.692;12.844;2024-02-23T01:20:16;10.50;67.50
69382;DHT22;56560;50.692;12.844;2024-02-23T01:22:42;10.40;67.40
69382;DHT22;56560;50.692;12.844;2024-02-23T01:25:08;10.40;67.70
69382;DHT22;56560;50.692;12.844;2024-02-23T01:27:34;10.40;67.00
69382;DHT22;56560;50.692;12.844;2024-02-23T01:29:59;10.30;67.00
69382;DHT22;56560;50.692;12.844;2024-02-23T01:32:25;10.30;66.90
69382;DHT22;56560;50.692;12.844;2024-02-23T01:34:51;10.30;66.80
69382;DHT22;56560;50.692;12.844;2024-02-23T01:37:16;10.20;66.80
69382;DHT22;56560;50.692;12.844;2024-02-23T01:39:42;10.20;66.40
69382;DHT22;56560;50.692;12.844;2024-02-23T01:42:08;10.20;66.70
69382;DHT22;56560;50.692;12.844;2024-02-23T01:44:34;10.10;66.40
69382;DHT22;56560;50.692;12.844;2024-02-23T01:47:00;10.10;66.70
69382;DHT22;56560;50.692;12.844;2024-02-23T01:49:26;10.10;66.90
69382;DHT22;56560;50.692;12.844;2024-02-23T01:51:57;9.90;66.80
69382;DHT22;56560;50.692;12.844;2024-02-23T01:54:24;9.90;67.10
69382;DHT22;56560;50.692;12.844;2024-02-23T01:56:50;9.90;66.60
69382;DHT22;56560;50.692;12.844;2024-02-23T01:59:16;9.90;66.50
69382;DHT22;56560;50.692;12.844;2024-02-23T02:01:43;9.90;66.60
69382;DHT22;56560;50.692;12.844;2024-02-23T02:04:09;9.90;66.20
69382;DHT22;56560;50.692;12.844;2024-02-23T02:06:35;9.90;66.30
69382;DHT22;56560;50.692;12.844;2024-02-23T02:09:03;9.90;66.20
69382;DHT22;56560;50.692;12.844;2024-02-23T02:11:29;9.90;66.00
69382;DHT22;56560;50.692;12.844;2024-02-23T02:13:55;9.90;65.90
69382;DHT22;56560;50.692;12.844;2024-02-23T02:16:20;9.90;65.90
69382;DHT22;56560;50.692;12.844;2024-02-23T02:18:46;9.90;66.20
69382;DHT22;56560;50.692;12.844;2024-02-23T02:21:11;9.80;66.30
69382;DHT22;56560;50.692;12.844;2024-02-23T02:23:37;9.90;66.30
69382;DHT22;56560;50.692;12.844;2024-02-23T02:26:04;9.90;66.20
69382;DHT22;56560;50.692;12.844;2024-02-23T02:28:31;9.90;66.30
69382;DHT22;56560;50.692;12.844;2024-02-23T02:30:57;9.90;66.40
69382;DHT22;56560;50.692;12.844;2024-02-23T02:33:22;9.80;66.30
69382;DHT22;56560;50.692;12.844;2024-02-23T02:35:49;9.80;65.90
69382;DHT22;56560;50.692;12.844;2024-02-23T02:38:17;9.80;65.90
69382;DHT22;56560;50.692;12.844;2024-02-23T02:40:43;9.80;65.80
69382;DHT22;56560;50.692;12.844;2024-02-23T02:43:09;9.70;65.70
69382;DHT22;56560;50.692;12.844;2024-02-23T02:45:34;9.70;65.80
69382;DHT22;56560;50.692;12.844;2024-02-23T02:48:00;9.70;65.40
69382;DHT22;56560;50.692;12.844;2024-02-23T02:50:27;9.60;65.20
69382;DHT22;56560;50.692;12.844;2024-02-23T02:52:53;9.60;65.50
69382;DHT22;56560;50.692;12.844;2024-02-23T02:55:18;9.60;65.40
69382;DHT22;56560;50.692;12.844;2024-02-23T02:57:44;9.50;65.30
69382;DHT22;56560;50.692;12.844;2024-02-23T03:00:14;9.50;64.70
69382;DHT22;56560;50.692;12.844;2024-02-23T03:02:40;9.50;64.60
69382;DHT22;56560;50.692;12.844;2024-02-23T03:05:05;9.50;64.90
69382;DHT22;56560;50.692;12.844;2024-02-23T03:07:31;9.50;65.50
69382;DHT22;56560;50.692;12.844;2024-02-23T03:09:57;9.40;66.10
69382;DHT22;56560;50.692;12.844;2024-02-23T03:12:22;9.30;66.70
69382;DHT22;56560;50.692;12.844;2024-02-23T03:14:48;9.20;67.50
69382;DHT22;56560;50.692;12.844;2024-02-23T03:17:14;9.20;68.30
69382;DHT22;56560;50.692;12.844;2024-02-23T03:19:39;9.10;68.70
69382;DHT22;56560;50.692;12.844;2024-02-23T03:22:05;9.10;69.30
69382;DHT22;56560;50.692;12.844;2024-02-23T03:24:31;9.10;69.20
69382;DHT22;56560;50.692;12.844;2024-02-23T03:26:56;9.00;69.30
69382;DHT22;56560;50.692;12.844;2024-02-23T03:29:22;8.90;70.10
69382;DHT22;56560;50.692;12.844;2024-02-23T03:31:55;8.80;69.40
69382;DHT22;56560;50.692;12.844;2024-02-23T03:34:20;8.70;69.80
69382;DHT22;56560;50.692;12.844;2024-02-23T03:36:46;8.60;70.10
69382;DHT22;56560;50.692;12.844;2024-02-23T03:39:13;8.40;70.60
69382;DHT22;56560;50.692;12.844;2024-02-23T03:41:39;8.30;71.00
69382;DHT22;56560;50.692;12.844;2024-02-23T03:44:04;8.20;71.00
69382;DHT22;56560;50.692;12.844;2024-02-23T03:46:30;8.10;71.30
69382;DHT22;56560;50.692;12.844;2024-02-23T03:48:56;8.00;71.60
69382;DHT22;56560;50.692;12.844;2024-02-23T03:51:23;7.90;71.90
69382;DHT22;56560;50.692;12.844;2024-02-23T03:53:49;7.80;71.50
69382;DHT22;56560;50.692;12.844;2024-02-23T03:56:15;7.70;71.50
69382;DHT22;56560;50.692;12.844;2024-02-23T03:58:40;7.50;69.90
69382;DHT22;56560;50.692;12.844;2024-02-23T04:01:06;7.40;69.30
69382;DHT22;56560;50.692;12.844;2024-02-23T04:03:31;7.30;68.50
69382;DHT22;56560;50.692;12.844;2024-02-23T04:05:57;7.30;66.60
69382;DHT22;56560;50.692;12.844;2024-02-23T04:08:22;7.20;66.00
69382;DHT22;56560;50.692;12.844;2024-02-23T04:10:48;7.10;64.10
69382;DHT22;56560;50.692;12.844;2024-02-23T04:13:14;7.10;63.60
69382;DHT22;56560;50.692;12.844;2024-02-23T04:15:40;7.00;63.10
69382;DHT22;56560;50.692;12.844;2024-02-23T04:18:06;7.00;61.30
69382;DHT22;56560;50.692;12.844;2024-02-23T04:20:32;6.90;61.60
69382;DHT22;56560;50.692;12.844;2024-02-23T04:22:58;6.90;62.00
69382;DHT22;56560;50.692;12.844;2024-02-23T04:25:24;6.90;61.60
69382;DHT22;56560;50.692;12.844;2024-02-23T04:27:50;6.90;62.30
69382;DHT22;56560;50.692;12.844;2024-02-23T04:30:15;6.90;62.60
69382;DHT22;56560;50.692;12.844;2024-02-23T04:32:41;7.00;63.00
69382;DHT22;56560;50.692;12.844;2024-02-23T04:35:07;7.00;62.90
69382;DHT22;56560;50.692;12.844;2024-02-23T04:37:33;7.10;63.20
69382;DHT22;56560;50.692;12.844;2024-02-23T04:39:59;7.10;63.30
69382;DHT22;56560;50.692;12.844;2024-02-23T04:42:25;7.10;63.60
69382;DHT22;56560;50.692;12.844;2024-02-23T04:44:50;7.00;63.80
69382;DHT22;56560;50.692;12.844;2024-02-23T04:47:18;7.10;64.20
69382;DHT22;56560;50.692;12.844;2024-02-23T04:49:43;7.10;63.80
69382;DHT22;56560;50.692;12.844;2024-02-23T04:52:09;7.10;63.30
69382;DHT22;56560;50.692;12.844;2024-02-23T04:54:35;7.00;63.30
69382;DHT22;56560;50.692;12.844;2024-02-23T04:57:00;6.90;63.70
69382;DHT22;56560;50.692;12.844;2024-02-23T04:59:26;6.90;63.50
69382;DHT22;56560;50.692;12.844;2024-02-23T05:01:52;6.80;63.70
69382;DHT22;56560;50.692;12.844;2024-02-23T05:04:17;6.70;64.30
69382;DHT22;56560;50.692;12.844;2024-02-23T05:06:43;6.60;64.60
69382;DHT22;56560;50.692;12.844;2024-02-23T05:09:09;6.60;64.60
69382;DHT22;56560;50.692;12.844;2024-02-23T05:11:35;6.60;64.90
69382;DHT22;56560;50.692;12.844;2024-02-23T05:14:00;6.60;64.80
69382;DHT22;56560;50.692;12.844;2024-02-23T05:16:26;6.60;64.90
69382;DHT22;56560;50.692;12.844;2024-02-23T05:18:52;6.50;65.30
69382;DHT22;56560;50.692;12.844;2024-02-23T05:21:17;6.40;65.30
69382;DHT22;56560;50.692;12.844;2024-02-23T05:23:43;6.40;65.60
69382;DHT22;56560;50.692;12.844;2024-02-23T05:26:08;6.40;65.40
69382;DHT22;56560;50.692;12.844;2024-02-23T05:28:34;6.40;65.40
69382;DHT22;56560;50.692;12.844;2024-02-23T05:31:02;6.50;65.50
69382;DHT22;56560;50.692;12.844;2024-02-23T05:33:29;6.50;65.50
69382;DHT22;56560;50.692;12.844;2024-02-23T05:35:54;6.40;65.70
69382;DHT22;56560;50.692;12.844;2024-02-23T05:38:20;6.40;65.40
69382;DHT22;56560;50.692;12.844;2024-02-23T05:40:46;6.40;65.20
69382;DHT22;56560;50.692;12.844;2024-02-23T05:43:13;6.40;65.30
69382;DHT22;56560;50.692;12.844;2024-02-23T05:45:39;6.40;65.70
69382;DHT22;56560;50.692;12.844;2024-02-23T05:48:05;6.30;65.40
69382;DHT22;56560;50.692;12.844;2024-02-23T05:50:32;6.30;64.90
69382;DHT22;56560;50.692;12.844;2024-02-23T05:52:57;6.30;65.20
69382;DHT22;56560;50.692;12.844;2024-02-23T05:55:23;6.20;65.40
69382;DHT22;56560;50.692;12.844;2024-02-23T05:57:49;6.20;65.40
69382;DHT22;56560;50.692;12.844;2024-02-23T06:00:16;6.30;65.10
69382;DHT22;56560;50.692;12.844;2024-02-23T06:02:44;6.30;64.70
69382;DHT22;56560;50.692;12.844;2024-02-23T06:05:11;6.40;64.20
69382;DHT22;56560;50.692;12.844;2024-02-23T06:07:37;6.50;64.00
69382;DHT22;56560;50.692;12.844;2024-02-23T06:10:03;6.50;63.00
69382;DHT22;56560;50.692;12.844;2024-02-23T06:12:28;6.60;62.40
69382;DHT22;56560;50.692;12.844;2024-02-23T06:14:54;6.50;62.60
69382;DHT22;56560;50.692;12.844;2024-02-23T06:17:22;6.50;62.40
69382;DHT22;56560;50.692;12.844;2024-02-23T06:19:48;6.60;62.30
69382;DHT22;56560;50.692;12.844;2024-02-23T06:22:14;6.60;62.10
69382;DHT22;56560;50.692;12.844;2024-02-23T06:24:42;6.60;61.60
69382;DHT22;56560;50.692;12.844;2024-02-23T06:27:08;6.70;61.50
69382;DHT22;56560;50.692;12.844;2024-02-23T06:29:36;6.70;61.70
69382;DHT22;56560;50.692;12.844;2024-02-23T06:32:01;6.80;61.10
69382;DHT22;56560;50.692;12.844;2024-02-23T06:34:28;6.90;61.40
69382;DHT22;56560;50.692;12.844;2024-02-23T06:36:54;7.00;60.90
69382;DHT22;56560;50.692;12.844;2024-02-23T06:39:19;7.10;60.50
69382;DHT22;56560;50.692;12.844;2024-02-23T06:41:45;7.20;60.60
69382;DHT22;56560;50.692;12.844;2024-02-23T06:44:11;7.30;60.20
69382;DHT22;56560;50.692;12.844;2024-02-23T06:46:36;7.40;60.00
69382;DHT22;56560;50.692;12.844;2024-02-23T06:49:03;7.60;59.60
69382;DHT22;56560;50.692;12.844;2024-02-23T06:51:31;7.60;59.70
69382;DHT22;56560;50.692;12.844;2024-02-23T06:53:57;7.70;60.20
69382;DHT22;56560;50.692;12.844;2024-02-23T06:56:23;7.70;59.90
69382;DHT22;56560;50.692;12.844;2024-02-23T06:58:49;7.60;60.80
69382;DHT22;56560;50.692;12.844;2024-02-23T07:01:14;7.60;60.10
69382;DHT22;56560;50.692;12.844;2024-02-23T07:03:40;7.70;60.20
69382;DHT22;56560;50.692;12.844;2024-02-23T07:06:08;7.80;60.80
69382;DHT22;56560;50.692;12.844;2024-02-23T07:08:35;7.80;60.90
69382;DHT22;56560;50.692;12.844;2024-02-23T07:11:01;7.80;60.90
69382;DHT22;56560;50.692;12.844;2024-02-23T07:13:27;7.90;61.00
69382;DHT22;56560;50.692;12.844;2024-02-23T07:15:53;7.90;60.70
69382;DHT22;56560;50.692;12.844;2024-02-23T07:18:18;7.80;60.40
69382;DHT22;56560;50.692;12.844;2024-02-23T07:20:44;7.80;61.30
69382;DHT22;56560;50.692;12.844;2024-02-23T07:23:10;7.80;61.30
69382;DHT22;56560;50.692;12.844;2024-02-23T07:25:36;7.80;61.00
69382;DHT22;56560;50.692;12.844;2024-02-23T07:28:01;7.80;61.00
69382;DHT22;56560;50.692;12.844;2024-02-23T07:30:27;7.80;61.10
69382;DHT22;56560;50.692;12.844;2024-02-23T07:32:52;7.80;60.20
69382;DHT22;56560;50.692;12.844;2024-02-23T07:35:18;7.70;61.00
69382;DHT22;56560;50.692;12.844;2024-02-23T07:37:43;7.70;60.70
69382;DHT22;56560;50.692;12.844;2024-02-23T07:40:09;7.70;61.00
69382;DHT22;56560;50.692;12.844;2024-02-23T07:42:35;7.80;61.00
69382;DHT22;56560;50.692;12.844;2024-02-23T07:45:04;7.80;60.70
69382;DHT22;56560;50.692;12.844;2024-02-23T07:47:31;7.90;60.00
69382;DHT22;56560;50.692;12.844;2024-02-23T07:49:57;7.80;60.50
69382;DHT22;56560;50.692;12.844;2024-02-23T07:52:23;7.80;60.40
69382;DHT22;56560;50.692;12.844;2024-02-23T07:54:51;7.90;59.90
69382;DHT22;56560;50.692;12.844;2024-02-23T07:57:18;7.90;60.00
69382;DHT22;56560;50.692;12.844;2024-02-23T07:59:44;7.90;60.20
69382;DHT22;56560;50.692;12.844;2024-02-23T08:02:09;7.90;60.10
69382;DHT22;56560;50.692;12.844;2024-02-23T08:04:35;8.00;59.20
69382;DHT22;56560;50.692;12.844;2024-02-23T08:07:01;8.10;59.00
69382;DHT22;56560;50.692;12.844;2024-02-23T08:09:26;8.10;57.90
69382;DHT22;56560;50.692;12.844;2024-02-23T08:11:52;8.10;58.20
69382;DHT22;56560;50.692;12.844;2024-02-23T08:14:18;8.10;57.70
69382;DHT22;56560;50.692;12.844;2024-02-23T08:16:43;8.10;57.90
69382;DHT22;56560;50.692;12.844;2024-02-23T08:19:09;8.20;57.20
69382;DHT22;56560;50.692;12.844;2024-02-23T08:21:35;8.30;56.90
69382;DHT22;56560;50.692;12.844;2024-02-23T08:24:00;8.50;56.70
69382;DHT22;56560;50.692;12.844;2024-02-23T08:26:26;8.60;55.40
69382;DHT22;56560;50.692;12.844;2024-02-23T08:28:51;8.70;55.10
69382;DHT22;56560;50.692;12.844;2024-02-23T08:31:17;8.80;55.00
69382;DHT22;56560;50.692;12.844;2024-02-23T08:33:42;9.00;53.90
69382;DHT22;56560;50.692;12.844;2024-02-23T08:36:08;9.00;53.90
69382;DHT22;56560;50.692;12.844;2024-02-23T08:38:36;9.00;53.50
69382;DHT22;56560;50.692;12.844;2024-02-23T08:41:02;9.10;53.50
69382;DHT22;56560;50.692;12.844;2024-02-23T08:43:28;9.20;53.40
69382;DHT22;56560;50.692;12.844;2024-02-23T08:45:53;9.30;53.10
69382;DHT22;56560;50.692;12.844;2024-02-23T08:48:19;9.50;53.10
69382;DHT22;56560;50.692;12.844;2024-02-23T08:50:45;9.60;53.10
69382;DHT22;56560;50.692;12.844;2024-02-23T08:53:11;9.60;52.00
69382;DHT22;56560;50.692;12.844;2024-02-23T08:55:36;9.70;58.00
69382;DHT22;56560;50.692;12.844;2024-02-23T08:58:02;9.90;52.50
69382;DHT22;56560;50.692;12.844;2024-02-23T09:00:28;10.00;51.50
69382;DHT22;56560;50.692;12.844;2024-02-23T09:02:53;9.90;52.80
69382;DHT22;56560;50.692;12.844;2024-02-23T09:05:19;9.90;50.70
69382;DHT22;56560;50.692;12.844;2024-02-23T09:07:46;10.00;50.40
69382;DHT22;56560;50.692;12.844;2024-02-23T09:10:12;10.10;51.40
69382;DHT22;56560;50.692;12.844;2024-02-23T09:12:37;10.20;49.80
69382;DHT22;56560;50.692;12.844;2024-02-23T09:15:04;10.20;49.60
69382;DHT22;56560;50.692;12.844;2024-02-23T09:17:30;10.30;49.70
69382;DHT22;56560;50.692;12.844;2024-02-23T09:19:56;10.40;49.70
69382;DHT22;56560;50.692;12.844;2024-02-23T09:22:21;10.60;49.50
69382;DHT22;56560;50.692;12.844;2024-02-23T09:24:48;10.50;48.90
69382;DHT22;56560;50.692;12.844;2024-02-23T09:27:13;10.30;48.50
69382;DHT22;56560;50.692;12.844;2024-02-23T09:29:40;10.10;48.70
69382;DHT22;56560;50.692;12.844;2024-02-23T09:32:07;10.10;49.50
69382;DHT22;56560;50.692;12.844;2024-02-23T09:34:33;10.20;49.50
69382;DHT22;56560;50.692;12.844;2024-02-23T09:36:58;10.40;48.90
69382;DHT22;56560;50.692;12.844;2024-02-23T09:39:24;10.50;48.30
69382;DHT22;56560;50.692;12.844;2024-02-23T09:41:52;10.50;48.50
69382;DHT22;56560;50.692;12.844;2024-02-23T09:44:19;10.70;49.10
69382;DHT22;56560;50.692;12.844;2024-02-23T09:46:47;10.80;49.30
69382;DHT22;56560;50.692;12.844;2024-02-23T09:49:15;11.10;48.60
69382;DHT22;56560;50.692;12.844;2024-02-23T09:51:41;11.10;47.50
69382;DHT22;56560;50.692;12.844;2024-02-23T09:54:07;11.10;47.70
69382;DHT22;56560;50.692;12.844;2024-02-23T09:56:33;11.00;47.10
69382;DHT22;56560;50.692;12.844;2024-02-23T09:59:02;10.90;48.20
69382;DHT22;56560;50.692;12.844;2024-02-23T10:01:29;11.00;47.80
69382;DHT22;56560;50.692;12.844;2024-02-23T10:04:02;10.80;47.50
69382;DHT22;56560;50.692;12.844;2024-02-23T10:06:30;10.70;47.20
69382;DHT22;56560;50.692;12.844;2024-02-23T10:08:55;10.40;47.80
69382;DHT22;56560;50.692;12.844;2024-02-23T10:11:21;10.30;47.90
69382;DHT22;56560;50.692;12.844;2024-02-23T10:13:48;10.10;48.20
69382;DHT22;56560;50.692;12.844;2024-02-23T10:16:18;10.10;48.30
69382;DHT22;56560;50.692;12.844;2024-02-23T10:18:46;10.00;49.00
69382;DHT22;56560;50.692;12.844;2024-02-23T10:21:12;10.10;48.50
69382;DHT22;56560;50.692;12.844;2024-02-23T10:23:38;10.10;48.80
69382;DHT22;56560;50.692;12.844;2024-02-23T10:26:05;10.20;48.80
69382;DHT22;56560;50.692;12.844;2024-02-23T10:28:31;10.30;48.00
69382;DHT22;56560;50.692;12.844;2024-02-23T10:30:57;10.30;48.20
69382;DHT22;56560;50.692;12.844;2024-02-23T10:33:23;10.40;48.40
69382;DHT22;56560;50.692;12.844;2024-02-23T10:35:56;10.40;48.80
69382;DHT22;56560;50.692;12.844;2024-02-23T10:38:29;10.50;47.70
69382;DHT22;56560;50.692;12.844;2024-02-23T10:40:55;10.60;47.90
69382;DHT22;56560;50.692;12.844;2024-02-23T10:43:50;10.70;47.30
69382;DHT22;56560;50.692;12.844;2024-02-23T10:46:18;10.80;47.50
69382;DHT22;56560;50.692;12.844;2024-02-23T10:48:45;10.70;47.40
69382;DHT22;56560;50.692;12.844;2024-02-23T10:51:13;10.60;48.20
69382;DHT22;56560;50.692;12.844;2024-02-23T10:53:43;10.50;47.80
69382;DHT22;56560;50.692;12.844;2024-02-23T10:56:10;10.20;47.60
69382;DHT22;56560;50.692;12.844;2024-02-23T10:58:36;10.10;48.40
69382;DHT22;56560;50.692;12.844;2024-02-23T11:01:04;10.30;48.40
69382;DHT22;56560;50.692;12.844;2024-02-23T11:03:31;10.30;48.10
69382;DHT22;56560;50.692;12.844;2024-02-23T11:05:59;10.20;48.30
69382;DHT22;56560;50.692;12.844;2024-02-23T11:08:28;10.30;48.20
69382;DHT22;56560;50.692;12.844;2024-02-23T11:10:54;10.40;47.60
69382;DHT22;56560;50.692;12.844;2024-02-23T11:13:30;10.40;47.80
69382;DHT22;56560;50.692;12.844;2024-02-23T11:16:02;10.40;47.30
69382;DHT22;56560;50.692;12.844;2024-02-23T11:18:28;10.50;47.90
69382;DHT22;56560;50.692;12.844;2024-02-23T11:20:55;10.50;47.50
69382;DHT22;56560;50.692;12.844;2024-02-23T11:23:22;10.40;47.70
69382;DHT22;56560;50.692;12.844;2024-02-23T11:28:29;10.40;47.40
69382;DHT22;56560;50.692;12.844;2024-02-23T11:30:55;10.30;47.60
69382;DHT22;56560;50.692;12.844;2024-02-23T11:33:27;10.30;47.70
69382;DHT22;56560;50.692;12.844;2024-02-23T11:35:53;10.40;47.00
69382;DHT22;56560;50.692;12.844;2024-02-23T11:38:21;10.40;47.80
69382;DHT22;56560;50.692;12.844;2024-02-23T11:40:48;10.60;47.50
69382;DHT22;56560;50.692;12.844;2024-02-23T11:43:14;10.70;47.20
69382;DHT22;56560;50.692;12.844;2024-02-23T11:45:40;10.80;47.70
69382;DHT22;56560;50.692;12.844;2024-02-23T11:48:07;10.80;47.10
69382;DHT22;56560;50.692;12.844;2024-02-23T11:50:33;10.90;47.60
69382;DHT22;56560;50.692;12.844;2024-02-23T11:52:59;11.00;46.90
69382;DHT22;56560;50.692;12.844;2024-02-23T11:55:26;10.90;46.80
69382;DHT22;56560;50.692;12.844;2024-02-23T11:57:52;10.80;47.50
69382;DHT22;56560;50.692;12.844;2024-02-23T12:00:18;10.80;47.90
69382;DHT22;56560;50.692;12.844;2024-02-23T12:02:44;10.90;47.50
69382;DHT22;56560;50.692;12.844;2024-02-23T12:05:15;10.90;47.50
69382;DHT22;56560;50.692;12.844;2024-02-23T12:07:41;10.80;47.40
69382;DHT22;56560;50.692;12.844;2024-02-23T12:10:08;10.60;47.90
69382;DHT22;56560;50.692;12.844;2024-02-23T12:12:34;10.30;48.40
69382;DHT22;56560;50.692;12.844;2024-02-23T12:14:59;10.20;49.00
69382;DHT22;56560;50.692;12.844;2024-02-23T12:17:25;10.30;49.10
69382;DHT22;56560;50.692;12.844;2024-02-23T12:20:02;10.30;49.00
69382;DHT22;56560;50.692;12.844;2024-02-23T12:22:28;10.20;49.50
69382;DHT22;56560;50.692;12.844;2024-02-23T12:24:57;10.20;50.20
69382;DHT22;56560;50.692;12.844;2024-02-23T12:27:23;10.50;50.50
69382;DHT22;56560;50.692;12.844;2024-02-23T12:29:54;10.70;50.50
69382;DHT22;56560;50.692;12.844;2024-02-23T12:32:23;10.90;49.60
69382;DHT22;56560;50.692;12.844;2024-02-23T12:34:49;10.70;49.30
69382;DHT22;56560;50.692;12.844;2024-02-23T12:37:15;10.70;49.70
69382;DHT22;56560;50.692;12.844;2024-02-23T12:39:41;10.70;48.20
69382;DHT22;56560;50.692;12.844;2024-02-23T12:42:08;10.60;49.00
69382;DHT22;56560;50.692;12.844;2024-02-23T12:44:33;10.40;48.20
69382;DHT22;56560;50.692;12.844;2024-02-23T12:46:59;10.40;48.90
69382;DHT22;56560;50.692;12.844;2024-02-23T12:49:27;10.50;48.70
69382;DHT22;56560;50.692;12.844;2024-02-23T12:51:52;10.40;48.00
69382;DHT22;56560;50.692;12.844;2024-02-23T12:54:18;10.30;47.50
69382;DHT22;56560;50.692;12.844;2024-02-23T12:56:44;10.20;47.70
69382;DHT22;56560;50.692;12.844;2024-02-23T12:59:10;10.10;48.40
69382;DHT22;56560;50.692;12.844;2024-02-23T13:01:36;10.10;48.20
69382;DHT22;56560;50.692;12.844;2024-02-23T13:04:03;10.20;48.00
69382;DHT22;56560;50.692;12.844;2024-02-23T13:06:36;10.20;48.00
69382;DHT22;56560;50.692;12.844;2024-02-23T13:09:02;10.20;47.60
69382;DHT22;56560;50.692;12.844;2024-02-23T13:11:29;10.30;47.60
69382;DHT22;56560;50.692;12.844;2024-02-23T13:13:54;10.10;47.00
69382;DHT22;56560;50.692;12.844;2024-02-23T13:16:21;10.00;47.80
69382;DHT22;56560;50.692;12.844;2024-02-23T13:18:47;9.80;47.90
69382;DHT22;56560;50.692;12.844;2024-02-23T13:21:13;9.70;48.70
69382;DHT22;56560;50.692;12.844;2024-02-23T13:23:39;9.70;49.00
69382;DHT22;56560;50.692;12.844;2024-02-23T13:26:05;9.70;48.60
69382;DHT22;56560;50.692;12.844;2024-02-23T13:28:31;9.60;48.90
69382;DHT22;56560;50.692;12.844;2024-02-23T13:30:57;9.60;48.90
69382;DHT22;56560;50.692;12.844;2024-02-23T13:33:22;9.60;49.10
69382;DHT22;56560;50.692;12.844;2024-02-23T13:35:49;9.60;49.60
69382;DHT22;56560;50.692;12.844;2024-02-23T13:38:15;9.70;50.00
69382;DHT22;56560;50.692;12.844;2024-02-23T13:40:40;9.80;49.90
69382;DHT22;56560;50.692;12.844;2024-02-23T13:43:06;9.90;49.60
69382;DHT22;56560;50.692;12.844;2024-02-23T13:45:32;10.00;49.30
69382;DHT22;56560;50.692;12.844;2024-02-23T13:48:02;10.00;49.20
69382;DHT22;56560;50.692;12.844;2024-02-23T13:50:28;9.90;49.30
69382;DHT22;56560;50.692;12.844;2024-02-23T13:52:54;10.00;49.90
69382;DHT22;56560;50.692;12.844;2024-02-23T13:55:20;10.00;50.20
69382;DHT22;56560;50.692;12.844;2024-02-23T13:57:47;10.10;50.40
69382;DHT22;56560;50.692;12.844;2024-02-23T14:00:13;10.00;49.90
69382;DHT22;56560;50.692;12.844;2024-02-23T14:02:39;9.80;48.80
69382;DHT22;56560;50.692;12.844;2024-02-23T14:05:07;9.60;49.90
69382;DHT22;56560;50.692;12.844;2024-02-23T14:07:33;9.60;51.10
69382;DHT22;56560;50.692;12.844;2024-02-23T14:09:59;9.70;51.00
69382;DHT22;56560;50.692;12.844;2024-02-23T14:12:25;9.80;50.80
69382;DHT22;56560;50.692;12.844;2024-02-23T14:14:51;9.80;51.00
69382;DHT22;56560;50.692;12.844;2024-02-23T14:17:17;9.80;50.80
69382;DHT22;56560;50.692;12.844;2024-02-23T14:19:42;9.70;50.30
69382;DHT22;56560;50.692;12.844;2024-02-23T14:22:08;9.70;49.80
69382;DHT22;56560;50.692;12.844;2024-02-23T14:24:34;9.50;50.30
69382;DHT22;56560;50.692;12.844;2024-02-23T14:27:00;9.40;50.40
69382;DHT22;56560;50.692;12.844;2024-02-23T14:29:25;9.30;49.40
69382;DHT22;56560;50.692;12.844;2024-02-23T14:31:51;9.30;49.80
69382;DHT22;56560;50.692;12.844;2024-02-23T14:34:17;9.20;50.00
69382;DHT22;56560;50.692;12.844;2024-02-23T14:36:42;9.10;50.40
69382;DHT22;56560;50.692;12.844;2024-02-23T14:39:09;9.00;50.30
69382;DHT22;56560;50.692;12.844;2024-02-23T14:41:35;8.90;50.70
69382;DHT22;56560;50.692;12.844;2024-02-23T14:44:01;8.80;50.50
69382;DHT22;56560;50.692;12.844;2024-02-23T14:46:27;8.70;51.00
69382;DHT22;56560;50.692;12.844;2024-02-23T14:48:52;8.60;51.10
69382;DHT22;56560;50.692;12.844;2024-02-23T14:51:19;8.60;51.10
69382;DHT22;56560;50.692;12.844;2024-02-23T14:53:45;8.50;51.30
69382;DHT22;56560;50.692;12.844;2024-02-23T14:56:10;8.50;51.60
69382;DHT22;56560;50.692;12.844;2024-02-23T14:58:36;8.40;51.50
69382;DHT22;56560;50.692;12.844;2024-02-23T15:01:01;8.30;51.90
69382;DHT22;56560;50.692;12.844;2024-02-23T15:03:27;8.40;52.20
69382;DHT22;56560;50.692;12.844;2024-02-23T15:05:53;8.30;52.20
69382;DHT22;56560;50.692;12.844;2024-02-23T15:08:18;8.30;52.60
69382;DHT22;56560;50.692;12.844;2024-02-23T15:10:44;8.30;52.60
69382;DHT22;56560;50.692;12.844;2024-02-23T15:13:10;8.30;52.90
69382;DHT22;56560;50.692;12.844;2024-02-23T15:15:35;8.30;53.40
69382;DHT22;56560;50.692;12.844;2024-02-23T15:18:06;8.30;53.50
69382;DHT22;56560;50.692;12.844;2024-02-23T15:20:32;8.30;54.00
69382;DHT22;56560;50.692;12.844;2024-02-23T15:22:57;8.30;53.60